sensor_id;sensor_type;location;lat;lon;timestamp;P1;durP1;ratioP1;P2;durP2;ratioP2
3309;SDS011;1667;53.238;10.394;2023-02-01T00:01:45;6.43;;;2.10;;
3309;SDS011;1667;53.238;10.394;2023-02-01T00:06:43;4.33;;;1.27;;
3309;SDS011;1667;53.238;10.394;2023-02-01T00:11:42;14.77;;;2.10;;
3309;SDS011;1667;53.238;10.394;2023-02-01T00:16:40;1.23;;;0.93;;
3309;SDS011;1667;53.238;10.394;2023-02-01T00:21:41;12.93;;;4.33;;
3309;SDS011;1667;53.238;10.394;2023-02-01T00:26:41;5.20;;;1.80;;
3309;SDS011;1667;53.238;10.394;2023-02-01T00:31:41;8.47;;;2.53;;
3309;SDS011;1667;53.238;10.394;2023-02-01T00:36:42;10.20;;;2.00;;
3309;SDS011;1667;53.238;10.394;2023-02-01T00:41:41;11.97;;;2.23;;
3309;SDS011;1667;53.238;10.394;2023-02-01T00:46:40;12.80;;;1.90;;
3309;SDS011;1667;53.238;10.394;2023-02-01T00:51:38;9.07;;;3.03;;
3309;SDS011;1667;53.238;10.394;2023-02-01T00:56:39;10.10;;;2.67;;
3309;SDS011;1667;53.238;10.394;2023-02-01T01:01:38;12.47;;;2.90;;
3309;SDS011;1667;53.238;10.394;2023-02-01T01:06:37;7.93;;;1.57;;
3309;SDS011;1667;53.238;10.394;2023-02-01T01:11:37;10.23;;;2.40;;
3309;SDS011;1667;53.238;10.394;2023-02-01T01:16:37;15.53;;;2.97;;
3309;SDS011;1667;53.238;10.394;2023-02-01T01:21:36;18.93;;;2.63;;
3309;SDS011;1667;53.238;10.394;2023-02-01T01:26:34;5.70;;;2.83;;
3309;SDS011;1667;53.238;10.394;2023-02-01T01:31:34;8.77;;;1.80;;
3309;SDS011;1667;53.238;10.394;2023-02-01T01:36:34;11.13;;;2.40;;
3309;SDS011;1667;53.238;10.394;2023-02-01T01:41:33;6.57;;;1.37;;
3309;SDS011;1667;53.238;10.394;2023-02-01T01:46:44;12.83;;;3.13;;
3309;SDS011;1667;53.238;10.394;2023-02-01T01:51:44;12.83;;;2.17;;
3309;SDS011;1667;53.238;10.394;2023-02-01T01:56:48;9.63;;;1.60;;
3309;SDS011;1667;53.238;10.394;2023-02-01T02:01:51;9.70;;;2.87;;
3309;SDS011;1667;53.238;10.394;2023-02-01T02:06:52;14.30;;;2.93;;
3309;SDS011;1667;53.238;10.394;2023-02-01T02:11:56;11.63;;;1.60;;
3309;SDS011;1667;53.238;10.394;2023-02-01T02:16:58;9.10;;;2.40;;
3309;SDS011;1667;53.238;10.394;2023-02-01T02:22:24;9.10;;;2.30;;
3309;SDS011;1667;53.238;10.394;2023-02-01T02:27:44;14.93;;;3.53;;
3309;SDS011;1667;53.238;10.394;2023-02-01T02:38:27;4.63;;;1.80;;
3309;SDS011;1667;53.238;10.394;2023-02-01T02:43:31;12.53;;;1.97;;
3309;SDS011;1667;53.238;10.394;2023-02-01T02:49:00;15.63;;;2.47;;
3309;SDS011;1667;53.238;10.394;2023-02-01T02:54:05;3.73;;;1.43;;
3309;SDS011;1667;53.238;10.394;2023-02-01T02:59:25;13.10;;;2.17;;
3309;SDS011;1667;53.238;10.394;2023-02-01T03:04:43;23.60;;;3.13;;
3309;SDS011;1667;53.238;10.394;2023-02-01T03:09:44;31.90;;;3.40;;
3309;SDS011;1667;53.238;10.394;2023-02-01T03:14:46;13.67;;;3.60;;
3309;SDS011;1667;53.238;10.394;2023-02-01T03:19:48;8.20;;;1.80;;
3309;SDS011;1667;53.238;10.394;2023-02-01T03:24:51;13.43;;;2.50;;
3309;SDS011;1667;53.238;10.394;2023-02-01T03:29:56;13.20;;;3.00;;
3309;SDS011;1667;53.238;10.394;2023-02-01T03:34:59;6.70;;;2.53;;
3309;SDS011;1667;53.238;10.394;2023-02-01T03:40:05;17.03;;;3.50;;
3309;SDS011;1667;53.238;10.394;2023-02-01T03:45:07;9.13;;;1.90;;
3309;SDS011;1667;53.238;10.394;2023-02-01T03:50:12;9.83;;;2.30;;
3309;SDS011;1667;53.238;10.394;2023-02-01T03:55:15;18.80;;;2.23;;
3309;SDS011;1667;53.238;10.394;2023-02-01T04:00:18;7.80;;;1.97;;
3309;SDS011;1667;53.238;10.394;2023-02-01T04:05:20;5.23;;;1.60;;
3309;SDS011;1667;53.238;10.394;2023-02-01T04:10:31;5.80;;;1.23;;
3309;SDS011;1667;53.238;10.394;2023-02-01T04:15:29;1.67;;;0.90;;
3309;SDS011;1667;53.238;10.394;2023-02-01T04:26:29;0.80;;;0.80;;
3309;SDS011;1667;53.238;10.394;2023-02-01T04:31:28;2.20;;;1.10;;
3309;SDS011;1667;53.238;10.394;2023-02-01T04:36:27;1.00;;;1.00;;
3309;SDS011;1667;53.238;10.394;2023-02-01T04:41:25;1.83;;;0.80;;
3309;SDS011;1667;53.238;10.394;2023-02-01T04:46:25;11.87;;;1.67;;
3309;SDS011;1667;53.238;10.394;2023-02-01T04:51:24;3.13;;;1.23;;
3309;SDS011;1667;53.238;10.394;2023-02-01T04:56:23;4.20;;;1.50;;
3309;SDS011;1667;53.238;10.394;2023-02-01T05:01:22;3.77;;;1.20;;
3309;SDS011;1667;53.238;10.394;2023-02-01T05:06:23;3.17;;;1.53;;
3309;SDS011;1667;53.238;10.394;2023-02-01T05:11:22;4.00;;;1.00;;
3309;SDS011;1667;53.238;10.394;2023-02-01T05:16:38;2.83;;;1.23;;
3309;SDS011;1667;53.238;10.394;2023-02-01T05:21:38;6.73;;;1.60;;
3309;SDS011;1667;53.238;10.394;2023-02-01T05:26:36;7.87;;;1.70;;
3309;SDS011;1667;53.238;10.394;2023-02-01T05:31:35;1.13;;;0.90;;
3309;SDS011;1667;53.238;10.394;2023-02-01T05:36:34;0.77;;;0.70;;
3309;SDS011;1667;53.238;10.394;2023-02-01T05:41:33;2.80;;;1.10;;
3309;SDS011;1667;53.238;10.394;2023-02-01T05:46:32;1.20;;;1.10;;
3309;SDS011;1667;53.238;10.394;2023-02-01T05:51:31;3.63;;;1.17;;
3309;SDS011;1667;53.238;10.394;2023-02-01T05:56:30;2.27;;;1.27;;
3309;SDS011;1667;53.238;10.394;2023-02-01T06:01:30;1.37;;;1.27;;
3309;SDS011;1667;53.238;10.394;2023-02-01T06:06:29;2.30;;;1.07;;
3309;SDS011;1667;53.238;10.394;2023-02-01T06:11:27;1.23;;;0.97;;
3309;SDS011;1667;53.238;10.394;2023-02-01T06:16:29;1.77;;;0.70;;
3309;SDS011;1667;53.238;10.394;2023-02-01T06:21:28;4.20;;;1.10;;
3309;SDS011;1667;53.238;10.394;2023-02-01T06:26:26;0.97;;;0.60;;
3309;SDS011;1667;53.238;10.394;2023-02-01T06:31:25;2.30;;;0.60;;
3309;SDS011;1667;53.238;10.394;2023-02-01T06:36:26;0.70;;;0.60;;
3309;SDS011;1667;53.238;10.394;2023-02-01T06:41:25;3.53;;;1.00;;
3309;SDS011;1667;53.238;10.394;2023-02-01T06:46:25;0.83;;;0.80;;
3309;SDS011;1667;53.238;10.394;2023-02-01T06:51:24;0.70;;;0.70;;
3309;SDS011;1667;53.238;10.394;2023-02-01T06:56:25;0.63;;;0.53;;
3309;SDS011;1667;53.238;10.394;2023-02-01T07:01:24;1.70;;;0.70;;
3309;SDS011;1667;53.238;10.394;2023-02-01T07:06:22;1.23;;;0.80;;
3309;SDS011;1667;53.238;10.394;2023-02-01T07:11:22;2.50;;;0.93;;
3309;SDS011;1667;53.238;10.394;2023-02-01T07:16:20;0.80;;;0.70;;
3309;SDS011;1667;53.238;10.394;2023-02-01T07:21:20;0.60;;;0.60;;
3309;SDS011;1667;53.238;10.394;2023-02-01T07:26:19;2.77;;;1.53;;
3309;SDS011;1667;53.238;10.394;2023-02-01T07:31:19;1.10;;;0.87;;
3309;SDS011;1667;53.238;10.394;2023-02-01T07:36:18;1.80;;;0.90;;
3309;SDS011;1667;53.238;10.394;2023-02-01T07:41:17;15.90;;;1.20;;
3309;SDS011;1667;53.238;10.394;2023-02-01T07:46:15;1.77;;;0.77;;
3309;SDS011;1667;53.238;10.394;2023-02-01T07:51:16;3.37;;;0.83;;
3309;SDS011;1667;53.238;10.394;2023-02-01T07:56:15;2.87;;;0.80;;
3309;SDS011;1667;53.238;10.394;2023-02-01T08:01:15;3.13;;;1.47;;
3309;SDS011;1667;53.238;10.394;2023-02-01T08:06:22;7.90;;;1.60;;
3309;SDS011;1667;53.238;10.394;2023-02-01T08:11:22;5.43;;;1.60;;
3309;SDS011;1667;53.238;10.394;2023-02-01T08:16:22;9.63;;;1.80;;
3309;SDS011;1667;53.238;10.394;2023-02-01T08:21:23;12.47;;;2.37;;
3309;SDS011;1667;53.238;10.394;2023-02-01T08:26:25;15.73;;;2.00;;
3309;SDS011;1667;53.238;10.394;2023-02-01T08:31:24;8.63;;;2.10;;
3309;SDS011;1667;53.238;10.394;2023-02-01T08:36:27;6.90;;;1.47;;
3309;SDS011;1667;53.238;10.394;2023-02-01T08:41:28;18.03;;;2.67;;
3309;SDS011;1667;53.238;10.394;2023-02-01T08:46:28;8.40;;;2.03;;
3309;SDS011;1667;53.238;10.394;2023-02-01T08:51:28;7.00;;;2.33;;
3309;SDS011;1667;53.238;10.394;2023-02-01T08:56:27;6.50;;;2.53;;
3309;SDS011;1667;53.238;10.394;2023-02-01T09:01:26;12.10;;;2.67;;
3309;SDS011;1667;53.238;10.394;2023-02-01T09:06:25;2.40;;;0.90;;
3309;SDS011;1667;53.238;10.394;2023-02-01T09:11:25;10.57;;;2.17;;
3309;SDS011;1667;53.238;10.394;2023-02-01T09:16:23;3.83;;;1.60;;
3309;SDS011;1667;53.238;10.394;2023-02-01T09:21:22;8.33;;;1.63;;
3309;SDS011;1667;53.238;10.394;2023-02-01T09:26:21;7.73;;;1.93;;
3309;SDS011;1667;53.238;10.394;2023-02-01T09:31:29;15.97;;;3.83;;
3309;SDS011;1667;53.238;10.394;2023-02-01T09:36:28;12.10;;;2.27;;
3309;SDS011;1667;53.238;10.394;2023-02-01T09:41:30;10.97;;;1.90;;
3309;SDS011;1667;53.238;10.394;2023-02-01T09:46:36;4.30;;;1.50;;
3309;SDS011;1667;53.238;10.394;2023-02-01T09:51:35;7.57;;;1.60;;
3309;SDS011;1667;53.238;10.394;2023-02-01T09:56:36;12.00;;;2.00;;
3309;SDS011;1667;53.238;10.394;2023-02-01T10:01:43;4.83;;;2.20;;
3309;SDS011;1667;53.238;10.394;2023-02-01T10:06:45;5.13;;;1.93;;
3309;SDS011;1667;53.238;10.394;2023-02-01T10:11:56;7.90;;;2.20;;
3309;SDS011;1667;53.238;10.394;2023-02-01T10:17:14;8.53;;;2.70;;
3309;SDS011;1667;53.238;10.394;2023-02-01T10:22:23;6.80;;;2.87;;
3309;SDS011;1667;53.238;10.394;2023-02-01T10:27:53;5.43;;;1.20;;
3309;SDS011;1667;53.238;10.394;2023-02-01T10:32:54;9.73;;;4.53;;
3309;SDS011;1667;53.238;10.394;2023-02-01T10:37:54;12.83;;;3.33;;
3309;SDS011;1667;53.238;10.394;2023-02-01T10:42:59;14.43;;;2.83;;
3309;SDS011;1667;53.238;10.394;2023-02-01T10:48:00;13.80;;;3.63;;
3309;SDS011;1667;53.238;10.394;2023-02-01T10:53:02;9.50;;;2.10;;
3309;SDS011;1667;53.238;10.394;2023-02-01T10:58:04;7.30;;;2.20;;
3309;SDS011;1667;53.238;10.394;2023-02-01T11:08:27;8.30;;;1.87;;
3309;SDS011;1667;53.238;10.394;2023-02-01T11:13:28;8.10;;;2.60;;
3309;SDS011;1667;53.238;10.394;2023-02-01T11:18:30;11.60;;;2.90;;
3309;SDS011;1667;53.238;10.394;2023-02-01T11:23:35;7.30;;;1.87;;
3309;SDS011;1667;53.238;10.394;2023-02-01T11:28:40;9.33;;;1.67;;
3309;SDS011;1667;53.238;10.394;2023-02-01T11:33:47;8.60;;;2.20;;
3309;SDS011;1667;53.238;10.394;2023-02-01T11:38:52;7.20;;;1.47;;
3309;SDS011;1667;53.238;10.394;2023-02-01T11:44:15;7.33;;;2.23;;
3309;SDS011;1667;53.238;10.394;2023-02-01T11:49:20;11.90;;;3.27;;
3309;SDS011;1667;53.238;10.394;2023-02-01T11:54:26;15.20;;;2.50;;
3309;SDS011;1667;53.238;10.394;2023-02-01T11:59:40;12.27;;;2.67;;
3309;SDS011;1667;53.238;10.394;2023-02-01T12:04:56;4.20;;;1.33;;
3309;SDS011;1667;53.238;10.394;2023-02-01T12:10:18;7.23;;;1.33;;
3309;SDS011;1667;53.238;10.394;2023-02-01T12:15:40;4.53;;;1.20;;
3309;SDS011;1667;53.238;10.394;2023-02-01T12:20:55;5.03;;;2.10;;
3309;SDS011;1667;53.238;10.394;2023-02-01T12:26:05;3.57;;;1.00;;
3309;SDS011;1667;53.238;10.394;2023-02-01T12:31:27;4.73;;;1.00;;
3309;SDS011;1667;53.238;10.394;2023-02-01T12:36:46;0.50;;;0.50;;
3309;SDS011;1667;53.238;10.394;2023-02-01T12:41:55;2.03;;;1.30;;
3309;SDS011;1667;53.238;10.394;2023-02-01T12:46:57;4.33;;;0.80;;
3309;SDS011;1667;53.238;10.394;2023-02-01T12:52:00;4.10;;;1.00;;
3309;SDS011;1667;53.238;10.394;2023-02-01T12:57:03;0.87;;;0.87;;
3309;SDS011;1667;53.238;10.394;2023-02-01T13:02:06;1.10;;;0.70;;
3309;SDS011;1667;53.238;10.394;2023-02-01T13:07:13;2.57;;;0.80;;
3309;SDS011;1667;53.238;10.394;2023-02-01T13:12:18;22.20;;;2.10;;
3309;SDS011;1667;53.238;10.394;2023-02-01T13:17:21;1.03;;;0.67;;
3309;SDS011;1667;53.238;10.394;2023-02-01T13:22:25;4.67;;;0.80;;
3309;SDS011;1667;53.238;10.394;2023-02-01T13:27:28;1.10;;;0.53;;
3309;SDS011;1667;53.238;10.394;2023-02-01T13:32:36;0.87;;;0.70;;
3309;SDS011;1667;53.238;10.394;2023-02-01T13:38:11;1.57;;;0.60;;
3309;SDS011;1667;53.238;10.394;2023-02-01T13:43:26;0.60;;;0.50;;
3309;SDS011;1667;53.238;10.394;2023-02-01T13:48:28;0.60;;;0.60;;
3309;SDS011;1667;53.238;10.394;2023-02-01T13:53:31;3.50;;;0.70;;
3309;SDS011;1667;53.238;10.394;2023-02-01T13:58:35;2.83;;;1.20;;
3309;SDS011;1667;53.238;10.394;2023-02-01T14:03:45;0.50;;;0.50;;
3309;SDS011;1667;53.238;10.394;2023-02-01T14:08:45;0.57;;;0.50;;
3309;SDS011;1667;53.238;10.394;2023-02-01T14:14:36;1.23;;;0.60;;
3309;SDS011;1667;53.238;10.394;2023-02-01T14:19:39;0.50;;;0.50;;
3309;SDS011;1667;53.238;10.394;2023-02-01T14:24:37;1.27;;;0.60;;
3309;SDS011;1667;53.238;10.394;2023-02-01T14:29:38;0.80;;;0.60;;
3309;SDS011;1667;53.238;10.394;2023-02-01T14:34:40;0.80;;;0.80;;
3309;SDS011;1667;53.238;10.394;2023-02-01T14:39:55;2.80;;;0.60;;
3309;SDS011;1667;53.238;10.394;2023-02-01T14:50:34;1.67;;;0.70;;
3309;SDS011;1667;53.238;10.394;2023-02-01T14:55:38;1.63;;;0.90;;
3309;SDS011;1667;53.238;10.394;2023-02-01T15:00:39;2.10;;;0.80;;
3309;SDS011;1667;53.238;10.394;2023-02-01T15:05:50;1.10;;;0.90;;
3309;SDS011;1667;53.238;10.394;2023-02-01T15:10:53;2.70;;;0.80;;
3309;SDS011;1667;53.238;10.394;2023-02-01T15:16:03;2.27;;;0.80;;
3309;SDS011;1667;53.238;10.394;2023-02-01T15:21:04;3.00;;;0.80;;
3309;SDS011;1667;53.238;10.394;2023-02-01T15:26:25;4.20;;;0.93;;
3309;SDS011;1667;53.238;10.394;2023-02-01T15:31:34;2.20;;;0.70;;
3309;SDS011;1667;53.238;10.394;2023-02-01T15:36:36;4.40;;;1.23;;
3309;SDS011;1667;53.238;10.394;2023-02-01T15:41:41;0.87;;;0.73;;
3309;SDS011;1667;53.238;10.394;2023-02-01T15:46:41;2.23;;;0.70;;
3309;SDS011;1667;53.238;10.394;2023-02-01T15:51:44;2.60;;;1.17;;
3309;SDS011;1667;53.238;10.394;2023-02-01T15:56:48;1.07;;;0.97;;
3309;SDS011;1667;53.238;10.394;2023-02-01T16:01:50;2.30;;;1.10;;
3309;SDS011;1667;53.238;10.394;2023-02-01T16:06:51;3.70;;;1.77;;
3309;SDS011;1667;53.238;10.394;2023-02-01T16:11:52;6.20;;;1.83;;
3309;SDS011;1667;53.238;10.394;2023-02-01T16:16:54;5.23;;;1.37;;
3309;SDS011;1667;53.238;10.394;2023-02-01T16:21:55;8.33;;;1.00;;
3309;SDS011;1667;53.238;10.394;2023-02-01T16:26:55;5.00;;;1.80;;
3309;SDS011;1667;53.238;10.394;2023-02-01T16:31:53;8.57;;;1.43;;
3309;SDS011;1667;53.238;10.394;2023-02-01T16:36:52;4.30;;;1.70;;
3309;SDS011;1667;53.238;10.394;2023-02-01T16:41:54;6.23;;;2.07;;
3309;SDS011;1667;53.238;10.394;2023-02-01T16:46:56;10.97;;;2.20;;
3309;SDS011;1667;53.238;10.394;2023-02-01T16:51:55;5.10;;;1.60;;
3309;SDS011;1667;53.238;10.394;2023-02-01T16:56:57;10.60;;;4.07;;
3309;SDS011;1667;53.238;10.394;2023-02-01T17:01:55;4.70;;;2.27;;
3309;SDS011;1667;53.238;10.394;2023-02-01T17:06:53;9.33;;;3.00;;
3309;SDS011;1667;53.238;10.394;2023-02-01T17:18:50;8.67;;;2.33;;
3309;SDS011;1667;53.238;10.394;2023-02-01T17:23:53;4.73;;;2.30;;
3309;SDS011;1667;53.238;10.394;2023-02-01T17:28:54;7.70;;;2.23;;
3309;SDS011;1667;53.238;10.394;2023-02-01T17:33:54;6.10;;;1.80;;
3309;SDS011;1667;53.238;10.394;2023-02-01T17:38:52;3.77;;;1.97;;
3309;SDS011;1667;53.238;10.394;2023-02-01T17:44:01;15.57;;;2.63;;
3309;SDS011;1667;53.238;10.394;2023-02-01T17:49:01;11.93;;;2.60;;
3309;SDS011;1667;53.238;10.394;2023-02-01T17:54:01;8.30;;;3.07;;
3309;SDS011;1667;53.238;10.394;2023-02-01T17:58:59;4.67;;;1.73;;
3309;SDS011;1667;53.238;10.394;2023-02-01T18:03:57;8.33;;;1.23;;
3309;SDS011;1667;53.238;10.394;2023-02-01T18:08:57;4.00;;;1.53;;
3309;SDS011;1667;53.238;10.394;2023-02-01T18:13:55;9.53;;;1.57;;
3309;SDS011;1667;53.238;10.394;2023-02-01T18:18:53;7.53;;;1.73;;
3309;SDS011;1667;53.238;10.394;2023-02-01T18:23:58;3.87;;;1.50;;
3309;SDS011;1667;53.238;10.394;2023-02-01T18:28:56;4.73;;;2.10;;
3309;SDS011;1667;53.238;10.394;2023-02-01T18:33:55;17.10;;;5.40;;
3309;SDS011;1667;53.238;10.394;2023-02-01T18:38:55;11.13;;;3.60;;
3309;SDS011;1667;53.238;10.394;2023-02-01T18:43:54;13.73;;;2.80;;
3309;SDS011;1667;53.238;10.394;2023-02-01T18:48:53;10.93;;;1.80;;
3309;SDS011;1667;53.238;10.394;2023-02-01T18:53:51;2.77;;;1.57;;
3309;SDS011;1667;53.238;10.394;2023-02-01T18:58:49;3.43;;;1.60;;
3309;SDS011;1667;53.238;10.394;2023-02-01T19:03:49;5.63;;;2.40;;
3309;SDS011;1667;53.238;10.394;2023-02-01T19:08:59;13.80;;;2.00;;
3309;SDS011;1667;53.238;10.394;2023-02-01T19:13:57;6.63;;;2.00;;
3309;SDS011;1667;53.238;10.394;2023-02-01T19:18:57;14.77;;;1.77;;
3309;SDS011;1667;53.238;10.394;2023-02-01T19:23:55;8.10;;;2.13;;
3309;SDS011;1667;53.238;10.394;2023-02-01T19:28:53;4.10;;;1.63;;
3309;SDS011;1667;53.238;10.394;2023-02-01T19:33:54;6.40;;;2.53;;
3309;SDS011;1667;53.238;10.394;2023-02-01T19:38:55;12.77;;;2.50;;
3309;SDS011;1667;53.238;10.394;2023-02-01T19:43:53;13.23;;;2.50;;
3309;SDS011;1667;53.238;10.394;2023-02-01T19:48:54;3.60;;;1.53;;
3309;SDS011;1667;53.238;10.394;2023-02-01T19:53:54;11.90;;;2.10;;
3309;SDS011;1667;53.238;10.394;2023-02-01T19:58:53;3.33;;;1.27;;
3309;SDS011;1667;53.238;10.394;2023-02-01T20:03:51;8.70;;;2.40;;
3309;SDS011;1667;53.238;10.394;2023-02-01T20:08:53;10.23;;;2.30;;
3309;SDS011;1667;53.238;10.394;2023-02-01T20:13:52;10.57;;;2.60;;
3309;SDS011;1667;53.238;10.394;2023-02-01T20:18:50;4.77;;;2.03;;
3309;SDS011;1667;53.238;10.394;2023-02-01T20:23:49;14.93;;;3.10;;
3309;SDS011;1667;53.238;10.394;2023-02-01T20:28:49;17.93;;;2.97;;
3309;SDS011;1667;53.238;10.394;2023-02-01T20:33:47;8.70;;;3.27;;
3309;SDS011;1667;53.238;10.394;2023-02-01T20:38:46;9.33;;;2.77;;
3309;SDS011;1667;53.238;10.394;2023-02-01T20:43:44;15.80;;;3.87;;
3309;SDS011;1667;53.238;10.394;2023-02-01T20:48:45;11.87;;;2.17;;
3309;SDS011;1667;53.238;10.394;2023-02-01T20:53:45;15.93;;;3.20;;
3309;SDS011;1667;53.238;10.394;2023-02-01T20:58:47;13.23;;;2.80;;
3309;SDS011;1667;53.238;10.394;2023-02-01T21:03:46;19.17;;;2.07;;
3309;SDS011;1667;53.238;10.394;2023-02-01T21:08:45;5.33;;;1.93;;
3309;SDS011;1667;53.238;10.394;2023-02-01T21:13:43;15.93;;;3.37;;
3309;SDS011;1667;53.238;10.394;2023-02-01T21:18:49;15.97;;;2.20;;
3309;SDS011;1667;53.238;10.394;2023-02-01T21:23:49;10.03;;;2.70;;
3309;SDS011;1667;53.238;10.394;2023-02-01T21:28:49;9.40;;;2.00;;
3309;SDS011;1667;53.238;10.394;2023-02-01T21:33:50;15.20;;;3.87;;
3309;SDS011;1667;53.238;10.394;2023-02-01T21:38:49;11.40;;;3.27;;
3309;SDS011;1667;53.238;10.394;2023-02-01T21:43:50;10.67;;;2.20;;
3309;SDS011;1667;53.238;10.394;2023-02-01T21:48:50;14.83;;;2.43;;
3309;SDS011;1667;53.238;10.394;2023-02-01T21:54:02;7.30;;;2.17;;
3309;SDS011;1667;53.238;10.394;2023-02-01T21:59:01;5.70;;;1.53;;
3309;SDS011;1667;53.238;10.394;2023-02-01T22:04:00;12.00;;;3.93;;
3309;SDS011;1667;53.238;10.394;2023-02-01T22:15:48;8.87;;;2.63;;
3309;SDS011;1667;53.238;10.394;2023-02-01T22:20:49;21.13;;;2.43;;
3309;SDS011;1667;53.238;10.394;2023-02-01T22:25:47;13.97;;;1.43;;
3309;SDS011;1667;53.238;10.394;2023-02-01T22:30:46;11.80;;;3.83;;
3309;SDS011;1667;53.238;10.394;2023-02-01T22:35:46;14.90;;;3.17;;
3309;SDS011;1667;53.238;10.394;2023-02-01T22:40:52;13.37;;;2.87;;
3309;SDS011;1667;53.238;10.394;2023-02-01T22:45:51;23.17;;;3.87;;
3309;SDS011;1667;53.238;10.394;2023-02-01T22:50:50;11.93;;;2.00;;
3309;SDS011;1667;53.238;10.394;2023-02-01T22:55:49;9.63;;;2.40;;
3309;SDS011;1667;53.238;10.394;2023-02-01T23:00:49;11.73;;;3.27;;
3309;SDS011;1667;53.238;10.394;2023-02-01T23:05:47;5.60;;;2.10;;
3309;SDS011;1667;53.238;10.394;2023-02-01T23:10:46;8.73;;;2.33;;
3309;SDS011;1667;53.238;10.394;2023-02-01T23:15:45;10.73;;;2.93;;
3309;SDS011;1667;53.238;10.394;2023-02-01T23:20:45;8.80;;;2.10;;
3309;SDS011;1667;53.238;10.394;2023-02-01T23:25:47;8.17;;;2.97;;
3309;SDS011;1667;53.238;10.394;2023-02-01T23:30:46;15.70;;;3.90;;
3309;SDS011;1667;53.238;10.394;2023-02-01T23:35:53;18.83;;;3.70;;
3309;SDS011;1667;53.238;10.394;2023-02-01T23:40:55;14.40;;;2.90;;
3309;SDS011;1667;53.238;10.394;2023-02-01T23:45:56;5.10;;;2.47;;
3309;SDS011;1667;53.238;10.394;2023-02-01T23:50:56;11.63;;;2.70;;
3309;SDS011;1667;53.238;10.394;2023-02-01T23:55:54;12.80;;;3.43;;
